createdAt,value
2023-02-15T00:01:56.198Z,100615.73
2023-02-15T00:04:24.462Z,100612.48
2023-02-15T00:06:52.444Z,100610.33
2023-02-15T00:09:19.458Z,100614.38
2023-02-15T00:11:51.730Z,100614.77
2023-02-15T00:14:21.819Z,100616.61
2023-02-15T00:16:50.052Z,100613.31
2023-02-15T00:19:18.334Z,100613.13
2023-02-15T00:21:47.898Z,100613.77
2023-02-15T00:24:17.112Z,100615.27
2023-02-15T00:26:44.601Z,100620.89
2023-02-15T00:29:11.948Z,100621.15
2023-02-15T00:31:39.485Z,100620.50
2023-02-15T00:34:20.892Z,100618.29
2023-02-15T00:36:48.455Z,100615.02
2023-02-15T00:39:16.399Z,100614.95
2023-02-15T00:41:45.348Z,100613.48
2023-02-15T00:44:12.872Z,100615.34
2023-02-15T00:46:40.420Z,100619.28
2023-02-15T00:49:10.450Z,100619.89
2023-02-15T00:51:40.778Z,100624.95
2023-02-15T00:54:09.737Z,100625.66
2023-02-15T00:56:38.101Z,100621.01
2023-02-15T00:59:09.719Z,100622.20
2023-02-15T01:01:37.735Z,100619.33
2023-02-15T01:04:05.061Z,100621.26
2023-02-15T01:06:32.783Z,100615.19
2023-02-15T01:09:00.122Z,100617.40
2023-02-15T01:11:27.547Z,100616.81
2023-02-15T01:13:56.688Z,100622.06
2023-02-15T01:16:25.324Z,100624.77
2023-02-15T01:18:57.665Z,100623.52
2023-02-15T01:21:25.789Z,100625.86
2023-02-15T01:23:53.312Z,100626.11
2023-02-15T01:26:22.038Z,100626.02
2023-02-15T01:28:49.356Z,100628.20
2023-02-15T01:31:18.512Z,100626.48
2023-02-15T01:33:47.048Z,100626.89
2023-02-15T01:36:14.790Z,100628.16
2023-02-15T01:38:42.244Z,100625.41
2023-02-15T01:41:26.715Z,100624.73
2023-02-15T01:43:58.635Z,100621.52
2023-02-15T01:46:37.787Z,100620.43
2023-02-15T01:49:13.853Z,100627.13
2023-02-15T01:51:41.164Z,100627.65
2023-02-15T01:54:12.430Z,100627.97
2023-02-15T01:56:39.598Z,100628.30
2023-02-15T01:59:09.905Z,100636.55
2023-02-15T02:01:37.156Z,100631.91
2023-02-15T02:04:10.423Z,100633.49
2023-02-15T02:06:38.554Z,100634.92
2023-02-15T02:09:09.494Z,100635.69
2023-02-15T02:11:36.730Z,100637.85
2023-02-15T02:14:04.487Z,100639.45
2023-02-15T02:16:45.315Z,100636.80
2023-02-15T02:19:28.074Z,100636.27
2023-02-15T02:22:08.000Z,100635.52
2023-02-15T02:24:54.383Z,100635.63
2023-02-15T02:27:27.069Z,100636.60
2023-02-15T02:30:03.337Z,100646.27
2023-02-15T02:32:30.675Z,100647.69
2023-02-15T02:35:44.069Z,100648.11
2023-02-15T02:38:37.364Z,100643.08
2023-02-15T02:41:16.740Z,100646.29
2023-02-15T02:43:56.138Z,100653.29
2023-02-15T02:46:29.401Z,100654.13
2023-02-15T02:48:56.379Z,100663.52
2023-02-15T02:51:25.050Z,100667.75
2023-02-15T02:53:53.869Z,100668.25
2023-02-15T02:56:39.341Z,100669.86
2023-02-15T02:59:18.783Z,100670.56
2023-02-15T03:01:52.720Z,100673.12
2023-02-15T03:04:22.702Z,100674.36
2023-02-15T03:06:58.976Z,100675.02
2023-02-15T03:09:44.077Z,100672.29
2023-02-15T03:12:25.269Z,100672.20
2023-02-15T03:15:20.107Z,100676.64
2023-02-15T03:17:49.692Z,100673.44
2023-02-15T03:20:26.465Z,100679.84
2023-02-15T03:22:58.158Z,100681.63
2023-02-15T03:25:34.617Z,100685.48
2023-02-15T03:28:07.816Z,100685.60
2023-02-15T03:30:35.790Z,100691.77
2023-02-15T03:33:03.208Z,100691.63
2023-02-15T03:36:09.420Z,100694.48
2023-02-15T03:38:59.784Z,100688.67
2023-02-15T03:41:30.042Z,100696.34
2023-02-15T03:44:07.244Z,100700.83
2023-02-15T03:46:43.205Z,100701.69
2023-02-15T03:49:45.501Z,100706.98
2023-02-15T03:52:12.808Z,100700.51
2023-02-15T03:54:42.658Z,100709.57
2023-02-15T03:57:34.575Z,100719.11
2023-02-15T04:00:25.716Z,100715.41
2023-02-15T04:03:27.009Z,100721.93
2023-02-15T04:05:54.914Z,100716.09
2023-02-15T04:08:42.066Z,100725.13
2023-02-15T04:11:11.836Z,100727.36
2023-02-15T04:13:39.730Z,100737.08
2023-02-15T04:16:08.124Z,100739.45
2023-02-15T04:18:59.255Z,100746.54
2023-02-15T04:21:46.947Z,100752.18
2023-02-15T04:24:33.075Z,100755.75
2023-02-15T04:27:00.510Z,100761.21
2023-02-15T04:29:27.847Z,100773.54
2023-02-15T04:31:56.207Z,100772.98
2023-02-15T04:34:23.338Z,100774.39
2023-02-15T04:36:50.872Z,100778.30
2023-02-15T04:39:18.467Z,100780.05
2023-02-15T04:41:45.992Z,100786.79
2023-02-15T04:44:14.298Z,100792.98
2023-02-15T04:46:41.353Z,100799.36
2023-02-15T04:49:09.032Z,100801.12
2023-02-15T04:51:36.373Z,100801.09
2023-02-15T04:54:04.872Z,100802.23
2023-02-15T04:56:34.882Z,100808.12
2023-02-15T04:59:02.951Z,100809.92
2023-02-15T05:01:30.418Z,100812.80
2023-02-15T05:03:57.804Z,100820.95
2023-02-15T05:06:24.862Z,100828.73
2023-02-15T05:08:51.923Z,100836.42
2023-02-15T05:11:19.093Z,100836.92
2023-02-15T05:13:46.214Z,100838.66
2023-02-15T05:16:15.247Z,100840.17
2023-02-15T05:18:42.570Z,100848.06
2023-02-15T05:21:09.890Z,100845.69
2023-02-15T05:23:37.090Z,100854.25
2023-02-15T05:26:22.817Z,100852.91
2023-02-15T05:28:49.827Z,100848.95
2023-02-15T05:31:18.416Z,100859.35
2023-02-15T05:33:46.700Z,100858.34
2023-02-15T05:36:14.037Z,100864.45
2023-02-15T05:38:41.212Z,100865.61
2023-02-15T05:41:09.422Z,100867.11
2023-02-15T05:43:38.891Z,100872.67
2023-02-15T05:46:06.138Z,100871.91
2023-02-15T05:48:33.447Z,100869.90
2023-02-15T05:51:08.761Z,100871.77
2023-02-15T05:53:37.430Z,100872.65
2023-02-15T05:56:06.386Z,100881.33
2023-02-15T05:58:38.555Z,100884.43
2023-02-15T06:01:13.623Z,100892.56
2023-02-15T06:03:40.967Z,100893.36
2023-02-15T06:06:08.573Z,100897.96
2023-02-15T06:08:36.293Z,100896.92
2023-02-15T06:11:04.099Z,100899.82
2023-02-15T06:13:32.441Z,100906.26
2023-02-15T06:16:01.004Z,100910.09
2023-02-15T06:18:29.394Z,100910.30
2023-02-15T06:20:56.422Z,100913.94
2023-02-15T06:23:24.208Z,100919.52
2023-02-15T06:25:51.611Z,100925.79
2023-02-15T06:28:20.218Z,100926.38
2023-02-15T06:30:47.442Z,100931.75
2023-02-15T06:33:15.682Z,100938.56
2023-02-15T06:35:42.732Z,100943.95
2023-02-15T06:38:10.030Z,100949.00
2023-02-15T06:40:37.230Z,100949.48
2023-02-15T06:43:08.854Z,100950.84
2023-02-15T06:45:36.306Z,100955.96
2023-02-15T06:48:03.522Z,100959.80
2023-02-15T06:50:31.117Z,100962.95
2023-02-15T06:52:58.897Z,100971.41
2023-02-15T06:55:26.138Z,100975.09
2023-02-15T06:57:54.264Z,100977.45
2023-02-15T07:00:23.740Z,100981.23
2023-02-15T07:02:58.645Z,100984.86
2023-02-15T07:05:32.894Z,100982.77
2023-02-15T07:08:02.295Z,100988.30
2023-02-15T07:10:29.824Z,100995.73
2023-02-15T07:12:57.170Z,101000.53
2023-02-15T07:15:26.034Z,101001.05
2023-02-15T07:17:53.658Z,101004.97
2023-02-15T07:20:22.159Z,101008.16
2023-02-15T07:22:50.334Z,101011.89
2023-02-15T07:25:21.184Z,101013.53
2023-02-15T07:27:48.829Z,101018.88
2023-02-15T07:30:17.320Z,101021.72
2023-02-15T07:33:05.708Z,101024.60
2023-02-15T07:35:34.665Z,101025.09
2023-02-15T07:38:01.964Z,101037.34
2023-02-15T07:40:29.498Z,101038.85
2023-02-15T07:42:58.557Z,101036.01
2023-02-15T07:45:26.173Z,101040.73
2023-02-15T07:47:56.600Z,101045.95
2023-02-15T07:50:24.062Z,101048.86
2023-02-15T07:52:51.911Z,101047.66
2023-02-15T07:55:20.113Z,101048.86
2023-02-15T07:57:48.039Z,101050.17
2023-02-15T08:00:17.288Z,101050.71
2023-02-15T08:02:49.615Z,101050.08
2023-02-15T08:05:18.882Z,101051.91
2023-02-15T08:07:46.178Z,101052.96
2023-02-15T08:10:33.167Z,101063.27
2023-02-15T08:13:01.234Z,101057.69
2023-02-15T08:15:32.399Z,101069.46
2023-02-15T08:18:00.350Z,101076.60
2023-02-15T08:20:27.567Z,101074.86
2023-02-15T08:22:56.321Z,101076.20
2023-02-15T08:25:27.831Z,101081.95
2023-02-15T08:28:04.017Z,101075.61
2023-02-15T08:30:36.352Z,101075.92
2023-02-15T08:33:04.296Z,101083.02
2023-02-15T08:35:32.635Z,101087.23
2023-02-15T08:37:59.727Z,101092.09
2023-02-15T08:40:26.879Z,101093.40
2023-02-15T08:42:54.214Z,101096.71
2023-02-15T08:45:22.075Z,101104.21
2023-02-15T08:47:50.204Z,101107.58
2023-02-15T08:50:17.695Z,101106.37
2023-02-15T08:52:44.838Z,101108.21
2023-02-15T08:55:11.900Z,101109.36
2023-02-15T08:57:45.328Z,101106.14
2023-02-15T09:00:13.774Z,101104.45
2023-02-15T09:02:41.168Z,101109.76
2023-02-15T09:05:08.984Z,101114.91
2023-02-15T09:07:36.990Z,101112.88
2023-02-15T09:10:06.042Z,101105.41
2023-02-15T09:12:34.201Z,101106.81
2023-02-15T09:15:06.172Z,101104.50
2023-02-15T09:17:34.782Z,101103.24
2023-02-15T09:20:03.197Z,101104.28
2023-02-15T09:22:32.550Z,101102.57
2023-02-15T09:25:00.083Z,101098.86
2023-02-15T09:27:27.151Z,101094.50
2023-02-15T09:29:54.504Z,101095.23
2023-02-15T09:32:23.078Z,101092.33
2023-02-15T09:34:51.381Z,101093.52
2023-02-15T09:37:20.141Z,101093.73
2023-02-15T09:39:49.136Z,101092.30
2023-02-15T09:42:23.752Z,101093.33
2023-02-15T09:45:09.264Z,101088.48
2023-02-15T09:47:45.201Z,101086.92
2023-02-15T09:50:13.368Z,101088.29
2023-02-15T09:52:53.941Z,101092.46
2023-02-15T09:55:26.011Z,101088.02
2023-02-15T09:58:13.316Z,101089.09
2023-02-15T10:00:56.112Z,101080.28
2023-02-15T10:03:58.841Z,101092.47
2023-02-15T10:06:47.520Z,101088.80
2023-02-15T10:09:49.155Z,101098.48
2023-02-15T10:12:32.924Z,101091.76
2023-02-15T10:15:16.880Z,101096.11
2023-02-15T10:18:07.025Z,101097.64
2023-02-15T10:20:57.116Z,101100.34
2023-02-15T10:23:37.787Z,101105.73
2023-02-15T10:26:12.072Z,101114.75
2023-02-15T10:29:09.773Z,101118.73
2023-02-15T10:31:52.212Z,101102.45
2023-02-15T10:34:39.728Z,101111.97
2023-02-15T10:37:17.462Z,101109.26
2023-02-15T10:40:06.353Z,101118.85
2023-02-15T10:43:12.467Z,101110.41
2023-02-15T10:46:01.628Z,101106.92
2023-02-15T10:49:06.179Z,101112.05
2023-02-15T10:52:02.742Z,101109.54
2023-02-15T10:55:24.423Z,101112.77
2023-02-15T10:57:56.170Z,101105.85
2023-02-15T11:00:40.048Z,101123.03
2023-02-15T11:03:33.101Z,101124.45
2023-02-15T11:06:05.274Z,101123.71
2023-02-15T11:08:38.838Z,101137.77
2023-02-15T11:11:10.293Z,101143.13
2023-02-15T11:13:42.898Z,101147.00
2023-02-15T11:16:26.597Z,101146.77
2023-02-15T11:19:00.116Z,101145.11
2023-02-15T11:21:29.064Z,101151.52
2023-02-15T11:23:56.152Z,101152.37
2023-02-15T11:26:33.732Z,101153.55
2023-02-15T11:29:06.854Z,101147.39
2023-02-15T11:31:45.758Z,101151.05
2023-02-15T11:34:34.995Z,101147.52
2023-02-15T11:37:05.908Z,101135.55
2023-02-15T12:25:55.152Z,101045.00
2023-02-15T12:28:33.327Z,101078.59
2023-02-15T12:31:02.434Z,101079.58
2023-02-15T12:33:33.982Z,101081.21
2023-02-15T12:36:03.085Z,101084.73
2023-02-15T12:38:32.182Z,101085.51
2023-02-15T12:41:04.708Z,101086.18
2023-02-15T12:43:38.181Z,101088.14
2023-02-15T12:46:26.478Z,101096.91
2023-02-15T12:49:11.160Z,101091.37
2023-02-15T12:51:49.613Z,101095.54
2023-02-15T12:54:32.435Z,101106.35
2023-02-15T12:56:59.889Z,101106.21
2023-02-15T12:59:27.255Z,101122.67
2023-02-15T13:01:54.755Z,101135.54
2023-02-15T13:04:29.314Z,101134.27
2023-02-15T13:06:59.022Z,101138.96
2023-02-15T13:09:33.196Z,101143.14
2023-02-15T13:12:32.587Z,101148.00
2023-02-15T13:15:03.652Z,101143.20
2023-02-15T13:17:32.471Z,101167.08
2023-02-15T13:20:04.054Z,101174.48
2023-02-15T13:23:06.287Z,101179.26
2023-02-15T13:25:40.779Z,101171.54
2023-02-15T13:28:09.032Z,101186.58
2023-02-15T13:30:42.057Z,101190.70
2023-02-15T13:33:31.407Z,101190.41
2023-02-15T13:36:18.653Z,101173.23
2023-02-15T13:38:53.866Z,101166.60
2023-02-15T13:41:35.607Z,101178.42
2023-02-15T13:44:03.758Z,101170.94
2023-02-15T13:46:34.708Z,101177.40
2023-02-15T13:49:24.798Z,101174.65
2023-02-15T13:52:24.319Z,101163.45
2023-02-15T13:55:16.956Z,101153.16
2023-02-15T13:57:56.724Z,101156.34
2023-02-15T14:00:49.958Z,101168.49
2023-02-15T14:03:37.914Z,101161.20
2023-02-15T14:06:05.734Z,101167.92
2023-02-15T14:08:52.554Z,101184.00
2023-02-15T14:11:25.211Z,101180.01
2023-02-15T14:13:59.056Z,101191.09
2023-02-15T14:16:34.020Z,101195.59
2023-02-15T14:19:06.470Z,101197.45
2023-02-15T14:21:50.394Z,101201.99
2023-02-15T14:24:49.645Z,101195.29
2023-02-15T14:27:44.740Z,101189.27
2023-02-15T14:30:19.962Z,101188.90
2023-02-15T14:32:54.344Z,101204.20
2023-02-15T14:35:24.629Z,101215.11
2023-02-15T14:37:57.869Z,101218.77
2023-02-15T14:41:03.577Z,101230.73
2023-02-15T14:43:56.029Z,101220.73
2023-02-15T14:46:39.734Z,101231.80
2023-02-15T14:49:13.546Z,101237.04
2023-02-15T14:51:44.014Z,101249.40
2023-02-15T14:54:17.980Z,101255.50
2023-02-15T14:56:45.931Z,101255.94
2023-02-15T14:59:19.237Z,101268.15
2023-02-15T15:01:59.828Z,101273.30
2023-02-15T15:04:48.408Z,101267.00
2023-02-15T15:07:25.977Z,101268.35
2023-02-15T15:10:16.393Z,101278.22
2023-02-15T15:12:54.315Z,101272.56
2023-02-15T15:15:27.287Z,101283.16
2023-02-15T15:18:09.024Z,101289.05
2023-02-15T15:20:45.792Z,101291.58
2023-02-15T15:23:16.172Z,101300.11
2023-02-15T15:25:49.486Z,101305.40
2023-02-15T15:28:35.522Z,101315.30
2023-02-15T15:31:08.802Z,101313.42
2023-02-15T15:33:55.083Z,101330.27
2023-02-15T15:36:48.219Z,101330.27
2023-02-15T15:39:35.233Z,101332.63
2023-02-15T15:42:29.209Z,101344.14
2023-02-15T15:45:24.018Z,101343.58
2023-02-15T15:48:13.595Z,101347.64
2023-02-15T15:50:41.461Z,101358.79
2023-02-15T15:53:21.796Z,101376.11
2023-02-15T15:55:50.083Z,101377.35
2023-02-15T15:58:17.984Z,101393.08
2023-02-15T16:01:07.961Z,101394.83
2023-02-15T16:03:35.595Z,101387.20
2023-02-15T16:06:03.352Z,101403.81
2023-02-15T16:08:41.163Z,101404.49
2023-02-15T16:11:26.230Z,101404.45
2023-02-15T16:13:53.554Z,101397.94
2023-02-15T16:16:29.511Z,101412.98
2023-02-15T16:18:58.441Z,101411.43
2023-02-15T16:21:33.968Z,101416.90
2023-02-15T16:24:14.418Z,101415.89
2023-02-15T16:26:42.237Z,101415.02
2023-02-15T16:29:18.198Z,101421.59
2023-02-15T16:32:02.778Z,101421.48
2023-02-15T16:34:32.910Z,101417.46
2023-02-15T16:37:16.544Z,101426.73
2023-02-15T16:39:44.553Z,101418.27
2023-02-15T16:42:17.619Z,101421.86
2023-02-15T16:44:46.734Z,101425.10
2023-02-15T16:47:32.250Z,101429.23
2023-02-15T16:50:01.000Z,101417.13
2023-02-15T16:52:28.125Z,101434.34
2023-02-15T16:55:00.093Z,101439.23
2023-02-15T16:57:31.435Z,101435.30
2023-02-15T17:00:05.569Z,101440.40
2023-02-15T17:02:54.412Z,101438.41
2023-02-15T17:05:21.446Z,101433.56
2023-02-15T17:08:11.868Z,101448.50
2023-02-15T17:10:42.295Z,101441.40
2023-02-15T17:13:13.027Z,101447.02
2023-02-15T17:15:44.699Z,101446.09
2023-02-15T17:18:15.013Z,101445.65
2023-02-15T17:20:42.872Z,101447.52
2023-02-15T17:23:36.542Z,101450.61
2023-02-15T17:26:21.815Z,101437.13
2023-02-15T17:28:54.418Z,101442.19
2023-02-15T17:31:21.891Z,101447.95
2023-02-15T17:33:50.133Z,101454.58
2023-02-15T17:36:23.012Z,101457.52
2023-02-15T17:39:03.185Z,101450.59
2023-02-15T17:41:34.585Z,101445.21
2023-02-15T17:44:03.314Z,101458.75
2023-02-15T17:46:35.240Z,101457.09
2023-02-15T17:49:02.727Z,101458.36
2023-02-15T17:51:31.511Z,101462.88
2023-02-15T17:54:17.604Z,101466.48
2023-02-15T17:56:44.961Z,101453.86
2023-02-15T17:59:13.753Z,101468.74
2023-02-15T18:02:05.891Z,101470.20
2023-02-15T18:04:52.188Z,101457.20
2023-02-15T18:07:40.948Z,101456.40
2023-02-15T18:10:36.922Z,101457.92
2023-02-15T18:13:04.415Z,101452.20
2023-02-15T18:15:31.820Z,101469.19
2023-02-15T18:18:00.926Z,101470.45
2023-02-15T18:20:36.301Z,101473.14
2023-02-15T18:23:05.539Z,101468.44
2023-02-15T18:25:32.874Z,101469.38
2023-02-15T18:28:00.128Z,101472.95
2023-02-15T18:30:28.391Z,101468.39
2023-02-15T18:32:56.748Z,101468.75
2023-02-15T18:35:26.179Z,101468.24
2023-02-15T18:37:53.835Z,101462.98
2023-02-15T18:40:22.731Z,101459.84
2023-02-15T18:42:50.100Z,101462.05
2023-02-15T18:45:27.126Z,101456.33
2023-02-15T18:47:57.692Z,101447.08
2023-02-15T18:50:27.109Z,101447.51
2023-02-15T18:52:54.451Z,101450.92
2023-02-15T18:55:28.261Z,101451.32
2023-02-15T18:57:56.744Z,101445.41
2023-02-15T19:00:28.920Z,101450.22
2023-02-15T19:02:56.780Z,101445.73
2023-02-15T19:05:24.437Z,101445.23
2023-02-15T19:07:52.689Z,101446.48
2023-02-15T19:10:21.333Z,101444.70
2023-02-15T19:12:48.855Z,101442.76
2023-02-15T19:15:26.894Z,101438.89
2023-02-15T19:17:54.164Z,101426.39
2023-02-15T19:20:39.288Z,101429.44
2023-02-15T19:23:08.336Z,101422.09
2023-02-15T19:25:37.667Z,101426.26
2023-02-15T19:28:27.822Z,101424.21
2023-02-15T19:30:54.958Z,101407.38
2023-02-15T19:33:23.360Z,101418.09
2023-02-15T19:35:53.801Z,101414.19
2023-02-15T19:38:33.131Z,101408.48
2023-02-15T19:41:01.646Z,101400.69
2023-02-15T19:43:29.790Z,101407.48
2023-02-15T19:45:57.157Z,101408.81
2023-02-15T19:48:24.404Z,101409.48
2023-02-15T19:50:56.645Z,101403.36
2023-02-15T19:53:25.604Z,101401.69
2023-02-15T19:55:53.359Z,101401.83
2023-02-15T19:58:21.424Z,101402.15
2023-02-15T20:00:49.607Z,101402.81
2023-02-15T20:03:17.730Z,101400.81
2023-02-15T20:05:45.616Z,101403.92
2023-02-15T20:08:18.529Z,101401.59
2023-02-15T20:10:46.453Z,101400.48
2023-02-15T20:13:16.694Z,101406.55
2023-02-15T20:15:44.302Z,101409.74
2023-02-15T20:18:11.476Z,101411.39
2023-02-15T20:20:45.376Z,101410.91
2023-02-15T20:23:22.645Z,101412.14
2023-02-15T20:25:50.142Z,101409.66
2023-02-15T20:28:23.133Z,101417.09
2023-02-15T20:30:51.281Z,101411.38
2023-02-15T20:33:19.198Z,101426.04
2023-02-15T20:35:46.259Z,101421.85
2023-02-15T20:38:18.999Z,101425.73
2023-02-15T20:41:06.426Z,101425.77
2023-02-15T20:43:33.701Z,101417.76
2023-02-15T20:46:02.007Z,101426.79
2023-02-15T20:48:30.571Z,101426.88
2023-02-15T20:50:58.141Z,101425.32
2023-02-15T20:53:26.127Z,101430.11
2023-02-15T20:55:53.562Z,101426.04
2023-02-15T20:58:26.500Z,101424.42
2023-02-15T21:00:54.418Z,101420.55
2023-02-15T21:03:24.114Z,101429.21
2023-02-15T21:05:51.270Z,101427.51
2023-02-15T21:08:20.713Z,101428.39
2023-02-15T21:10:50.828Z,101435.74
2023-02-15T21:13:36.024Z,101437.66
2023-02-15T21:16:03.600Z,101422.90
2023-02-15T21:18:32.881Z,101431.44
2023-02-15T21:21:02.089Z,101429.91
2023-02-15T21:23:38.258Z,101430.49
2023-02-15T21:26:07.162Z,101427.75
2023-02-15T21:28:35.135Z,101429.21
2023-02-15T21:31:02.967Z,101431.14
2023-02-15T21:33:31.026Z,101432.14
2023-02-15T21:35:58.599Z,101433.34
2023-02-15T21:38:28.141Z,101435.35
2023-02-15T21:41:16.401Z,101439.31
2023-02-15T21:44:02.518Z,101429.52
2023-02-15T21:46:49.776Z,101433.45
2023-02-15T21:49:16.859Z,101435.11
2023-02-15T21:52:02.805Z,101455.11
2023-02-15T21:54:29.826Z,101442.47
2023-02-15T21:56:57.274Z,101460.71
2023-02-15T21:59:24.927Z,101467.11
2023-02-15T22:01:52.251Z,101469.30
2023-02-15T22:04:25.289Z,101472.90
2023-02-15T22:06:52.479Z,101471.92
2023-02-15T22:09:21.978Z,101471.35
2023-02-15T22:11:51.022Z,101469.38
2023-02-15T22:14:35.291Z,101476.41
2023-02-15T22:17:17.771Z,101468.77
2023-02-15T22:19:45.811Z,101469.95
2023-02-15T22:22:13.930Z,101480.12
2023-02-15T22:24:42.778Z,101481.11
2023-02-15T22:27:25.264Z,101483.45
2023-02-15T22:29:52.512Z,101474.71
2023-02-15T22:32:21.604Z,101491.52
2023-02-15T22:34:49.194Z,101486.13
2023-02-15T22:37:16.838Z,101489.37
2023-02-15T22:39:43.912Z,101486.98
2023-02-15T22:42:27.583Z,101485.88
2023-02-15T22:44:55.331Z,101469.61
2023-02-15T22:47:27.553Z,101480.70
2023-02-15T22:49:54.970Z,101473.48
2023-02-15T22:52:24.155Z,101483.20
2023-02-15T22:54:51.193Z,101482.52
2023-02-15T22:57:22.360Z,101481.98
2023-02-15T22:59:50.084Z,101476.14
2023-02-15T23:02:17.209Z,101481.79
2023-02-15T23:04:44.691Z,101482.11
2023-02-15T23:07:18.847Z,101472.39
2023-02-15T23:09:46.499Z,101476.40
2023-02-15T23:12:59.905Z,101483.08
2023-02-15T23:15:27.292Z,101456.23
2023-02-15T23:17:54.538Z,101482.45
2023-02-15T23:20:21.567Z,101492.98
2023-02-15T23:22:49.477Z,101490.31
2023-02-15T23:25:21.350Z,101492.94
2023-02-15T23:27:57.738Z,101489.42
2023-02-15T23:30:25.198Z,101487.90
2023-02-15T23:32:53.084Z,101492.53
2023-02-15T23:35:20.104Z,101488.70
2023-02-15T23:37:47.615Z,101489.79
2023-02-15T23:40:34.860Z,101492.81
2023-02-15T23:43:02.293Z,101478.21
2023-02-15T23:45:29.628Z,101488.33
2023-02-15T23:48:15.677Z,101486.58
2023-02-15T23:50:43.588Z,101473.55
2023-02-15T23:53:10.657Z,101485.41
2023-02-15T23:55:38.847Z,101490.02
2023-02-15T23:58:09.507Z,101489.48
